Cat Bi International Airport


Codes: VVCI/HPH
Name: Cat Bi International Airport
City: Haiphong
Country: Vietnam
Elevation: 6 ft.
Wikipedia:

Photos at Cat Bi International Airport


   Photos courtesy of SpottingLog. You can add your own sightings and photos by signing up for a free trial today.



No photos found.

Weather at Cat Bi International Airport


Time (UTC)DescriptionTempratureWindCloud coverageVisibilityPressureHumidity
15-Apr-2024 18:00Broken Clouds25°C4 mph, S83%10000m1010hPa89%
15-Apr-2024 21:00Overcast Clouds24°C2 mph, N90%10000m1009hPa87%
16-Apr-2024 00:00Overcast Clouds25°C4 mph, SE88%10000m1011hPa83%
16-Apr-2024 03:00Broken Clouds28°C11 mph, S81%10000m1011hPa70%
16-Apr-2024 06:00Scattered Clouds30°C13 mph, S48%10000m1009hPa60%
16-Apr-2024 09:00Clear Sky28°C9 mph, SE0%10000m1007hPa69%
16-Apr-2024 12:00Scattered Clouds25°C9 mph, SE48%10000m1006hPa89%
16-Apr-2024 15:00Overcast Clouds25°C11 mph, SE100%10000m1007hPa86%
16-Apr-2024 18:00Overcast Clouds24°C4 mph, E85%10000m1006hPa95%
16-Apr-2024 21:00Overcast Clouds24°C4 mph, SE95%10000m1006hPa95%
17-Apr-2024 00:00Overcast Clouds26°C7 mph, SE98%10000m1008hPa86%
17-Apr-2024 03:00Overcast Clouds29°C11 mph, S100%10000m1009hPa71%
17-Apr-2024 06:00Overcast Clouds30°C13 mph, SE99%7661m1007hPa68%
17-Apr-2024 09:00Light Rain28°C11 mph, SE82%10000m1005hPa80%
17-Apr-2024 12:00Overcast Clouds25°C11 mph, E91%10000m1004hPa91%
17-Apr-2024 15:00Overcast Clouds25°C7 mph, E100%10000m1008hPa91%
17-Apr-2024 18:00Light Rain25°C7 mph, SE100%10000m1007hPa93%
17-Apr-2024 21:00Overcast Clouds24°C7 mph, E100%10000m1006hPa97%
18-Apr-2024 00:00Overcast Clouds25°C7 mph, E100%10000m1007hPa91%
18-Apr-2024 03:00Light Rain26°C9 mph, SE100%10000m1008hPa86%
18-Apr-2024 06:00Light Rain28°C13 mph, SE98%10000m1006hPa78%
18-Apr-2024 09:00Light Rain28°C11 mph, SE87%10000m1003hPa76%
18-Apr-2024 12:00Overcast Clouds26°C7 mph, SE94%10000m1004hPa83%
18-Apr-2024 15:00Light Rain24°C7 mph, SE100%10000m1007hPa90%
18-Apr-2024 18:00Overcast Clouds24°C9 mph, E99%10000m1004hPa96%
18-Apr-2024 21:00Broken Clouds25°C7 mph, E79%10000m1003hPa94%
19-Apr-2024 00:00Overcast Clouds26°C9 mph, SE90%10000m1005hPa87%
19-Apr-2024 03:00Broken Clouds29°C13 mph, SE71%10000m1005hPa71%
19-Apr-2024 06:00Scattered Clouds31°C13 mph, SE45%10000m1003hPa64%
19-Apr-2024 09:00Clear Sky29°C13 mph, SE3%10000m1000hPa71%
19-Apr-2024 12:00Few Clouds26°C9 mph, E12%10000m1001hPa90%
19-Apr-2024 15:00Broken Clouds26°C7 mph, SE74%10000m1005hPa89%
19-Apr-2024 18:00Overcast Clouds25°C7 mph, E87%10000m1004hPa94%
19-Apr-2024 21:00Broken Clouds25°C7 mph, E70%10000m1003hPa94%
20-Apr-2024 00:00Broken Clouds26°C9 mph, SE84%10000m1004hPa90%
20-Apr-2024 03:00Overcast Clouds30°C13 mph, SE94%10000m1005hPa69%
20-Apr-2024 06:00Broken Clouds31°C13 mph, SE53%10000m1003hPa67%
20-Apr-2024 09:00Clear Sky30°C11 mph, SE2%10000m1001hPa71%
20-Apr-2024 12:00Clear Sky26°C9 mph, SE5%10000m1003hPa93%
20-Apr-2024 15:00Broken Clouds26°C11 mph, SE69%10000m1005hPa90%